Terminal Aerodrome Forecast
Issued by NWS

Current Version | Previous Version | Text Only | Print | Product List | Glossary Off
Versions: 1 2 3 4 5 6 7 8 9 10 11 12 13 14 15 16

000
FTUS41 KPBZ 191100
TAFMGW
TAF
KMGW 191139Z 1912/2012 24003KT P6SM OVC015
     FM191700 29003KT P6SM OVC025
     FM192000 31003KT P6SM OVC050=

USA.gov is the U.S. government's official web portal to all federal, state and local government web resources and services.